sensor_id;sensor_type;location;lat;lon;timestamp;pressure;altitude;pressure_sealevel;temperature
70819;BMP280;58439;51.046;13.692;2022-10-31T00:00:29;100522.53;;;10.08
70819;BMP280;58439;51.046;13.692;2022-10-31T00:06:46;100521.94;;;10.06
70819;BMP280;58439;51.046;13.692;2022-10-31T00:09:25;100522.94;;;10.05
70819;BMP280;58439;51.046;13.692;2022-10-31T00:12:09;100523.59;;;9.99
70819;BMP280;58439;51.046;13.692;2022-10-31T00:14:39;100527.03;;;9.99
70819;BMP280;58439;51.046;13.692;2022-10-31T00:17:10;100519.47;;;10.04
70819;BMP280;58439;51.046;13.692;2022-10-31T00:19:37;100513.44;;;10.04
70819;BMP280;58439;51.046;13.692;2022-10-31T00:22:04;100529.50;;;10.01
70819;BMP280;58439;51.046;13.692;2022-10-31T00:24:54;100528.03;;;9.98
70819;BMP280;58439;51.046;13.692;2022-10-31T00:27:21;100524.97;;;9.95
70819;BMP280;58439;51.046;13.692;2022-10-31T00:29:51;100528.09;;;9.90
70819;BMP280;58439;51.046;13.692;2022-10-31T00:32:18;100526.47;;;9.89
70819;BMP280;58439;51.046;13.692;2022-10-31T00:34:46;100525.84;;;9.87
70819;BMP280;58439;51.046;13.692;2022-10-31T00:37:13;100528.63;;;9.85
70819;BMP280;58439;51.046;13.692;2022-10-31T00:39:43;100528.78;;;9.84
70819;BMP280;58439;51.046;13.692;2022-10-31T00:42:12;100539.78;;;9.79
70819;BMP280;58439;51.046;13.692;2022-10-31T00:44:45;100533.53;;;9.80
70819;BMP280;58439;51.046;13.692;2022-10-31T00:47:17;100532.13;;;9.78
70819;BMP280;58439;51.046;13.692;2022-10-31T00:49:49;100533.38;;;9.82
70819;BMP280;58439;51.046;13.692;2022-10-31T00:52:20;100526.41;;;9.74
70819;BMP280;58439;51.046;13.692;2022-10-31T00:54:47;100532.31;;;9.68
70819;BMP280;58439;51.046;13.692;2022-10-31T00:57:15;100528.03;;;9.75
70819;BMP280;58439;51.046;13.692;2022-10-31T00:59:43;100542.72;;;9.76
70819;BMP280;58439;51.046;13.692;2022-10-31T01:02:47;100536.59;;;9.69
70819;BMP280;58439;51.046;13.692;2022-10-31T01:05:15;100538.88;;;9.64
70819;BMP280;58439;51.046;13.692;2022-10-31T01:08:37;100539.84;;;9.63
70819;BMP280;58439;51.046;13.692;2022-10-31T01:12:05;100550.84;;;9.58
70819;BMP280;58439;51.046;13.692;2022-10-31T01:14:47;100548.03;;;9.60
70819;BMP280;58439;51.046;13.692;2022-10-31T01:17:17;100547.41;;;9.58
70819;BMP280;58439;51.046;13.692;2022-10-31T01:19:46;100545.75;;;9.57
70819;BMP280;58439;51.046;13.692;2022-10-31T01:22:13;100547.75;;;9.55
70819;BMP280;58439;51.046;13.692;2022-10-31T01:24:40;100545.19;;;9.47
70819;BMP280;58439;51.046;13.692;2022-10-31T01:27:08;100545.00;;;9.48
70819;BMP280;58439;51.046;13.692;2022-10-31T01:30:10;100544.84;;;9.50
70819;BMP280;58439;51.046;13.692;2022-10-31T01:32:41;100546.81;;;9.48
70819;BMP280;58439;51.046;13.692;2022-10-31T01:35:08;100543.91;;;9.43
70819;BMP280;58439;51.046;13.692;2022-10-31T01:37:35;100541.09;;;9.44
70819;BMP280;58439;51.046;13.692;2022-10-31T01:40:03;100546.31;;;9.44
70819;BMP280;58439;51.046;13.692;2022-10-31T01:42:34;100548.13;;;9.44
70819;BMP280;58439;51.046;13.692;2022-10-31T01:45:04;100549.47;;;9.40
70819;BMP280;58439;51.046;13.692;2022-10-31T01:47:44;100540.84;;;9.31
70819;BMP280;58439;51.046;13.692;2022-10-31T01:50:28;100546.72;;;9.25
70819;BMP280;58439;51.046;13.692;2022-10-31T01:53:00;100540.41;;;9.19
70819;BMP280;58439;51.046;13.692;2022-10-31T01:55:50;100545.34;;;9.14
70819;BMP280;58439;51.046;13.692;2022-10-31T01:58:28;100541.09;;;9.13
70819;BMP280;58439;51.046;13.692;2022-10-31T02:01:00;100546.97;;;9.15
70819;BMP280;58439;51.046;13.692;2022-10-31T02:03:34;100548.25;;;9.19
70819;BMP280;58439;51.046;13.692;2022-10-31T02:06:38;100550.34;;;9.24
70819;BMP280;58439;51.046;13.692;2022-10-31T02:09:16;100547.91;;;9.22
70819;BMP280;58439;51.046;13.692;2022-10-31T02:12:20;100547.75;;;9.16
70819;BMP280;58439;51.046;13.692;2022-10-31T02:18:23;100547.25;;;9.20
70819;BMP280;58439;51.046;13.692;2022-10-31T02:21:19;100556.25;;;9.18
70819;BMP280;58439;51.046;13.692;2022-10-31T02:27:29;100546.75;;;9.17
70819;BMP280;58439;51.046;13.692;2022-10-31T02:30:15;100550.88;;;9.11
70819;BMP280;58439;51.046;13.692;2022-10-31T02:33:33;100558.03;;;9.09
70819;BMP280;58439;51.046;13.692;2022-10-31T02:39:26;100556.31;;;8.93
70819;BMP280;58439;51.046;13.692;2022-10-31T02:42:15;100561.84;;;8.98
70819;BMP280;58439;51.046;13.692;2022-10-31T02:47:41;100564.25;;;9.08
70819;BMP280;58439;51.046;13.692;2022-10-31T02:50:32;100564.59;;;8.97
70819;BMP280;58439;51.046;13.692;2022-10-31T02:53:02;100563.50;;;8.91
70819;BMP280;58439;51.046;13.692;2022-10-31T03:18:39;100574.09;;;8.81
70819;BMP280;58439;51.046;13.692;2022-10-31T03:26:09;100574.59;;;8.77
70819;BMP280;58439;51.046;13.692;2022-10-31T03:29:31;100575.59;;;8.76
70819;BMP280;58439;51.046;13.692;2022-10-31T03:42:06;100579.69;;;8.70
70819;BMP280;58439;51.046;13.692;2022-10-31T03:45:19;100583.25;;;8.61
70819;BMP280;58439;51.046;13.692;2022-10-31T03:47:58;100582.63;;;8.59
70819;BMP280;58439;51.046;13.692;2022-10-31T03:50:50;100586.84;;;8.60
70819;BMP280;58439;51.046;13.692;2022-10-31T03:53:39;100581.47;;;8.53
70819;BMP280;58439;51.046;13.692;2022-10-31T03:56:27;100585.75;;;8.54
70819;BMP280;58439;51.046;13.692;2022-10-31T03:59:15;100589.16;;;8.63
70819;BMP280;58439;51.046;13.692;2022-10-31T04:01:51;100598.78;;;8.54
70819;BMP280;58439;51.046;13.692;2022-10-31T04:04:20;100592.72;;;8.46
70819;BMP280;58439;51.046;13.692;2022-10-31T04:06:51;100602.00;;;8.48
70819;BMP280;58439;51.046;13.692;2022-10-31T04:09:25;100601.03;;;8.41
70819;BMP280;58439;51.046;13.692;2022-10-31T04:11:57;100596.97;;;8.39
70819;BMP280;58439;51.046;13.692;2022-10-31T04:14:58;100602.00;;;8.48
70819;BMP280;58439;51.046;13.692;2022-10-31T04:17:30;100598.91;;;8.53
70819;BMP280;58439;51.046;13.692;2022-10-31T04:20:00;100596.78;;;8.57
70819;BMP280;58439;51.046;13.692;2022-10-31T04:22:28;100598.78;;;8.54
70819;BMP280;58439;51.046;13.692;2022-10-31T04:24:56;100603.16;;;8.46
70819;BMP280;58439;51.046;13.692;2022-10-31T04:27:23;100595.00;;;8.41
70819;BMP280;58439;51.046;13.692;2022-10-31T04:29:51;100591.75;;;8.39
70819;BMP280;58439;51.046;13.692;2022-10-31T04:32:19;100601.72;;;8.35
70819;BMP280;58439;51.046;13.692;2022-10-31T04:34:46;100606.72;;;8.37
70819;BMP280;58439;51.046;13.692;2022-10-31T04:37:13;100594.84;;;8.34
70819;BMP280;58439;51.046;13.692;2022-10-31T04:39:40;100596.97;;;8.39
70819;BMP280;58439;51.046;13.692;2022-10-31T04:42:29;100601.84;;;8.34
70819;BMP280;58439;51.046;13.692;2022-10-31T04:45:02;100603.13;;;8.30
70819;BMP280;58439;51.046;13.692;2022-10-31T04:47:32;100602.31;;;8.29
70819;BMP280;58439;51.046;13.692;2022-10-31T04:50:02;100606.03;;;8.26
70819;BMP280;58439;51.046;13.692;2022-10-31T04:52:31;100603.94;;;8.22
70819;BMP280;58439;51.046;13.692;2022-10-31T04:55:08;100613.72;;;8.20
70819;BMP280;58439;51.046;13.692;2022-10-31T04:58:02;100607.22;;;8.24
70819;BMP280;58439;51.046;13.692;2022-10-31T05:00:33;100604.63;;;8.24
70819;BMP280;58439;51.046;13.692;2022-10-31T05:03:01;100609.50;;;8.27
70819;BMP280;58439;51.046;13.692;2022-10-31T05:05:31;100605.91;;;8.28
70819;BMP280;58439;51.046;13.692;2022-10-31T05:08:01;100606.03;;;8.26
70819;BMP280;58439;51.046;13.692;2022-10-31T05:10:30;100611.63;;;8.23
70819;BMP280;58439;51.046;13.692;2022-10-31T05:13:02;100608.81;;;8.25
70819;BMP280;58439;51.046;13.692;2022-10-31T05:15:49;100610.31;;;8.27
70819;BMP280;58439;51.046;13.692;2022-10-31T05:18:17;100608.22;;;8.23
70819;BMP280;58439;51.046;13.692;2022-10-31T05:21:03;100605.09;;;8.19
70819;BMP280;58439;51.046;13.692;2022-10-31T05:23:35;100611.94;;;8.20
70819;BMP280;58439;51.046;13.692;2022-10-31T05:26:05;100608.22;;;8.31
70819;BMP280;58439;51.046;13.692;2022-10-31T05:28:33;100613.56;;;8.30
70819;BMP280;58439;51.046;13.692;2022-10-31T05:31:03;100600.69;;;8.28
70819;BMP280;58439;51.046;13.692;2022-10-31T05:33:31;100606.72;;;8.28
70819;BMP280;58439;51.046;13.692;2022-10-31T05:36:17;100614.22;;;8.23
70819;BMP280;58439;51.046;13.692;2022-10-31T05:38:57;100612.75;;;8.13
70819;BMP280;58439;51.046;13.692;2022-10-31T05:41:28;100611.41;;;8.09
70819;BMP280;58439;51.046;13.692;2022-10-31T05:44:05;100617.44;;;8.09
70819;BMP280;58439;51.046;13.692;2022-10-31T05:46:46;100617.94;;;8.13
70819;BMP280;58439;51.046;13.692;2022-10-31T05:49:32;100618.25;;;8.10
70819;BMP280;58439;51.046;13.692;2022-10-31T05:52:03;100620.22;;;8.08
70819;BMP280;58439;51.046;13.692;2022-10-31T05:59:49;100633.75;;;8.03
70819;BMP280;58439;51.046;13.692;2022-10-31T06:02:23;100633.75;;;8.03
70819;BMP280;58439;51.046;13.692;2022-10-31T06:05:19;100634.06;;;8.08
70819;BMP280;58439;51.046;13.692;2022-10-31T06:07:47;100632.59;;;8.14
70819;BMP280;58439;51.046;13.692;2022-10-31T06:10:14;100635.56;;;8.19
70819;BMP280;58439;51.046;13.692;2022-10-31T06:12:42;100638.63;;;8.22
70819;BMP280;58439;51.046;13.692;2022-10-31T06:15:16;100637.00;;;8.21
70819;BMP280;58439;51.046;13.692;2022-10-31T06:18:03;100636.50;;;8.26
70819;BMP280;58439;51.046;13.692;2022-10-31T06:20:41;100646.16;;;8.34
70819;BMP280;58439;51.046;13.692;2022-10-31T06:23:10;100645.66;;;8.38
70819;BMP280;58439;51.046;13.692;2022-10-31T06:25:37;100649.09;;;8.39
70819;BMP280;58439;51.046;13.692;2022-10-31T06:28:05;100645.19;;;8.43
70819;BMP280;58439;51.046;13.692;2022-10-31T06:30:52;100653.34;;;8.48
70819;BMP280;58439;51.046;13.692;2022-10-31T06:33:20;100653.84;;;8.51
70819;BMP280;58439;51.046;13.692;2022-10-31T06:36:00;100664.41;;;8.58
70819;BMP280;58439;51.046;13.692;2022-10-31T06:38:31;100666.22;;;8.66
70819;BMP280;58439;51.046;13.692;2022-10-31T06:41:03;100673.22;;;8.73
70819;BMP280;58439;51.046;13.692;2022-10-31T06:43:56;100674.53;;;8.86
70819;BMP280;58439;51.046;13.692;2022-10-31T06:46:47;100674.69;;;8.92
70819;BMP280;58439;51.046;13.692;2022-10-31T06:49:34;100677.47;;;8.99
70819;BMP280;58439;51.046;13.692;2022-10-31T06:52:05;100686.28;;;9.06
70819;BMP280;58439;51.046;13.692;2022-10-31T06:54:32;100687.41;;;9.12
70819;BMP280;58439;51.046;13.692;2022-10-31T06:57:00;100681.53;;;9.18
70819;BMP280;58439;51.046;13.692;2022-10-31T06:59:28;100682.31;;;9.26
70819;BMP280;58439;51.046;13.692;2022-10-31T07:02:36;100682.44;;;9.41
70819;BMP280;58439;51.046;13.692;2022-10-31T07:05:05;100685.19;;;9.48
70819;BMP280;58439;51.046;13.692;2022-10-31T07:07:32;100690.72;;;9.53
70819;BMP280;58439;51.046;13.692;2022-10-31T07:10:00;100686.16;;;9.55
70819;BMP280;58439;51.046;13.692;2022-10-31T07:12:44;100689.72;;;9.62
70819;BMP280;58439;51.046;13.692;2022-10-31T07:15:12;100688.69;;;9.79
70819;BMP280;58439;51.046;13.692;2022-10-31T07:17:40;100699.22;;;9.94
70819;BMP280;58439;51.046;13.692;2022-10-31T07:20:08;100695.44;;;10.05
70819;BMP280;58439;51.046;13.692;2022-10-31T07:22:52;100695.22;;;10.14
70819;BMP280;58439;51.046;13.692;2022-10-31T07:25:57;100702.31;;;10.29
70819;BMP280;58439;51.046;13.692;2022-10-31T07:28:31;100699.25;;;10.40
70819;BMP280;58439;51.046;13.692;2022-10-31T07:30:59;100705.75;;;10.52
70819;BMP280;58439;51.046;13.692;2022-10-31T07:33:27;100697.47;;;10.63
70819;BMP280;58439;51.046;13.692;2022-10-31T07:36:13;100697.69;;;10.77
70819;BMP280;58439;51.046;13.692;2022-10-31T07:38:43;100705.16;;;10.88
70819;BMP280;58439;51.046;13.692;2022-10-31T07:41:11;100702.91;;;10.99
70819;BMP280;58439;51.046;13.692;2022-10-31T07:43:42;100711.97;;;11.12
70819;BMP280;58439;51.046;13.692;2022-10-31T07:46:16;100714.09;;;11.23
70819;BMP280;58439;51.046;13.692;2022-10-31T07:49:09;100712.28;;;11.38
70819;BMP280;58439;51.046;13.692;2022-10-31T07:51:56;100704.66;;;11.51
70819;BMP280;58439;51.046;13.692;2022-10-31T07:54:27;100707.78;;;11.62
70819;BMP280;58439;51.046;13.692;2022-10-31T07:56:55;100709.94;;;11.73
70819;BMP280;58439;51.046;13.692;2022-10-31T07:59:22;100705.22;;;11.83
70819;BMP280;58439;51.046;13.692;2022-10-31T08:01:50;100707.63;;;11.99
70819;BMP280;58439;51.046;13.692;2022-10-31T08:04:46;100705.78;;;12.14
70819;BMP280;58439;51.046;13.692;2022-10-31T08:07:39;100706.56;;;12.30
70819;BMP280;58439;51.046;13.692;2022-10-31T08:10:13;100711.91;;;12.43
70819;BMP280;58439;51.046;13.692;2022-10-31T08:12:40;100709.56;;;12.55
70819;BMP280;58439;51.046;13.692;2022-10-31T08:15:09;100710.91;;;12.65
70819;BMP280;58439;51.046;13.692;2022-10-31T08:17:38;100708.13;;;12.73
70819;BMP280;58439;51.046;13.692;2022-10-31T08:20:07;100701.91;;;12.81
70819;BMP280;58439;51.046;13.692;2022-10-31T08:22:42;100708.44;;;12.92
70819;BMP280;58439;51.046;13.692;2022-10-31T08:25:10;100712.56;;;13.01
70819;BMP280;58439;51.046;13.692;2022-10-31T08:27:38;100702.34;;;13.13
70819;BMP280;58439;51.046;13.692;2022-10-31T08:30:11;100698.16;;;13.25
70819;BMP280;58439;51.046;13.692;2022-10-31T08:32:44;100702.03;;;13.36
70819;BMP280;58439;51.046;13.692;2022-10-31T08:35:41;100696.84;;;13.49
70819;BMP280;58439;51.046;13.692;2022-10-31T08:38:29;100697.53;;;13.64
70819;BMP280;58439;51.046;13.692;2022-10-31T08:40:57;100696.31;;;13.73
70819;BMP280;58439;51.046;13.692;2022-10-31T08:43:25;100703.22;;;13.81
70819;BMP280;58439;51.046;13.692;2022-10-31T08:45:54;100704.88;;;13.88
70819;BMP280;58439;51.046;13.692;2022-10-31T08:48:28;100699.84;;;14.00
70819;BMP280;58439;51.046;13.692;2022-10-31T08:50:58;100705.31;;;14.12
70819;BMP280;58439;51.046;13.692;2022-10-31T08:53:26;100698.06;;;14.21
70819;BMP280;58439;51.046;13.692;2022-10-31T08:56:12;100696.81;;;14.30
70819;BMP280;58439;51.046;13.692;2022-10-31T08:58:40;100701.47;;;14.34
70819;BMP280;58439;51.046;13.692;2022-10-31T09:01:39;100699.47;;;14.50
70819;BMP280;58439;51.046;13.692;2022-10-31T09:04:06;100697.66;;;14.57
70819;BMP280;58439;51.046;13.692;2022-10-31T09:06:35;100693.19;;;14.57
70819;BMP280;58439;51.046;13.692;2022-10-31T09:09:04;100701.09;;;14.64
70819;BMP280;58439;51.046;13.692;2022-10-31T09:11:31;100698.03;;;14.80
70819;BMP280;58439;51.046;13.692;2022-10-31T09:14:10;100692.94;;;14.98
70819;BMP280;58439;51.046;13.692;2022-10-31T09:17:00;100707.88;;;15.11
70819;BMP280;58439;51.046;13.692;2022-10-31T09:19:48;100707.19;;;15.29
70819;BMP280;58439;51.046;13.692;2022-10-31T09:22:23;100709.78;;;15.42
70819;BMP280;58439;51.046;13.692;2022-10-31T09:24:59;100707.84;;;15.62
70819;BMP280;58439;51.046;13.692;2022-10-31T09:27:27;100707.63;;;15.71
70819;BMP280;58439;51.046;13.692;2022-10-31T09:29:56;100706.97;;;15.82
70819;BMP280;58439;51.046;13.692;2022-10-31T09:32:23;100698.19;;;15.88
70819;BMP280;58439;51.046;13.692;2022-10-31T09:35:07;100701.56;;;15.95
70819;BMP280;58439;51.046;13.692;2022-10-31T09:37:35;100706.59;;;16.03
70819;BMP280;58439;51.046;13.692;2022-10-31T09:40:03;100701.41;;;16.21
70819;BMP280;58439;51.046;13.692;2022-10-31T09:51:13;100696.75;;;17.03
70819;BMP280;58439;51.046;13.692;2022-10-31T09:54:10;100698.66;;;17.26
70819;BMP280;58439;51.046;13.692;2022-10-31T09:56:39;100701.28;;;17.44
70819;BMP280;58439;51.046;13.692;2022-10-31T09:59:21;100708.66;;;17.54
70819;BMP280;58439;51.046;13.692;2022-10-31T10:02:16;100703.44;;;17.77
70819;BMP280;58439;51.046;13.692;2022-10-31T10:05:02;100697.69;;;18.86
70819;BMP280;58439;51.046;13.692;2022-10-31T10:16:30;100694.56;;;29.16
70819;BMP280;58439;51.046;13.692;2022-10-31T10:22:47;100693.94;;;31.17
70819;BMP280;58439;51.046;13.692;2022-10-31T10:25:23;100686.34;;;32.02
70819;BMP280;58439;51.046;13.692;2022-10-31T10:28:27;100681.16;;;32.30
70819;BMP280;58439;51.046;13.692;2022-10-31T10:34:27;100680.81;;;31.99
70819;BMP280;58439;51.046;13.692;2022-10-31T10:37:08;100695.16;;;33.38
70819;BMP280;58439;51.046;13.692;2022-10-31T10:39:49;100683.31;;;34.14
70819;BMP280;58439;51.046;13.692;2022-10-31T10:42:31;100683.88;;;34.20
70819;BMP280;58439;51.046;13.692;2022-10-31T10:45:20;100679.88;;;34.61
70819;BMP280;58439;51.046;13.692;2022-10-31T10:54:56;100673.22;;;34.58
70819;BMP280;58439;51.046;13.692;2022-10-31T10:57:50;100675.38;;;35.19
70819;BMP280;58439;51.046;13.692;2022-10-31T11:07:49;100663.16;;;36.09
70819;BMP280;58439;51.046;13.692;2022-10-31T11:11:59;100659.22;;;36.29
70819;BMP280;58439;51.046;13.692;2022-10-31T11:31:34;100633.84;;;36.78
70819;BMP280;58439;51.046;13.692;2022-10-31T11:49:36;100610.00;;;37.35
70819;BMP280;58439;51.046;13.692;2022-10-31T11:54:02;100607.59;;;36.96
70819;BMP280;58439;51.046;13.692;2022-10-31T11:59:02;100601.03;;;36.45
70819;BMP280;58439;51.046;13.692;2022-10-31T12:02:29;100591.72;;;36.23
70819;BMP280;58439;51.046;13.692;2022-10-31T12:06:09;100593.25;;;36.73
70819;BMP280;58439;51.046;13.692;2022-10-31T12:08:47;100589.50;;;36.85
70819;BMP280;58439;51.046;13.692;2022-10-31T12:27:56;100568.22;;;35.66
70819;BMP280;58439;51.046;13.692;2022-10-31T12:30:40;100568.81;;;34.79
70819;BMP280;58439;51.046;13.692;2022-10-31T12:33:47;100567.53;;;36.18
70819;BMP280;58439;51.046;13.692;2022-10-31T12:45:54;100558.94;;;37.39
70819;BMP280;58439;51.046;13.692;2022-10-31T13:09:51;100524.53;;;35.81
70819;BMP280;58439;51.046;13.692;2022-10-31T13:12:22;100529.78;;;35.93
70819;BMP280;58439;51.046;13.692;2022-10-31T13:15:01;100525.34;;;36.08
70819;BMP280;58439;51.046;13.692;2022-10-31T13:17:43;100522.44;;;36.54
70819;BMP280;58439;51.046;13.692;2022-10-31T13:20:25;100519.66;;;37.13
70819;BMP280;58439;51.046;13.692;2022-10-31T13:23:11;100514.97;;;37.10
70819;BMP280;58439;51.046;13.692;2022-10-31T13:26:12;100505.06;;;36.95
70819;BMP280;58439;51.046;13.692;2022-10-31T13:28:52;100509.75;;;36.65
70819;BMP280;58439;51.046;13.692;2022-10-31T13:31:22;100517.50;;;36.07
70819;BMP280;58439;51.046;13.692;2022-10-31T13:34:03;100506.56;;;36.03
70819;BMP280;58439;51.046;13.692;2022-10-31T13:40:42;100504.72;;;36.67
70819;BMP280;58439;51.046;13.692;2022-10-31T13:46:34;100499.63;;;36.99
70819;BMP280;58439;51.046;13.692;2022-10-31T13:54:50;100498.06;;;35.17
70819;BMP280;58439;51.046;13.692;2022-10-31T13:57:59;100495.72;;;34.42
70819;BMP280;58439;51.046;13.692;2022-10-31T14:00:28;100497.00;;;34.64
70819;BMP280;58439;51.046;13.692;2022-10-31T14:03:02;100491.72;;;34.52
70819;BMP280;58439;51.046;13.692;2022-10-31T14:05:56;100490.84;;;34.67
70819;BMP280;58439;51.046;13.692;2022-10-31T14:08:35;100482.94;;;34.43
70819;BMP280;58439;51.046;13.692;2022-10-31T14:16:00;100481.19;;;28.04
70819;BMP280;58439;51.046;13.692;2022-10-31T15:11:37;100440.84;;;19.06
70819;BMP280;58439;51.046;13.692;2022-10-31T15:14:36;100431.75;;;18.85
70819;BMP280;58439;51.046;13.692;2022-10-31T15:17:12;100427.69;;;18.61
70819;BMP280;58439;51.046;13.692;2022-10-31T15:19:43;100431.66;;;18.47
70819;BMP280;58439;51.046;13.692;2022-10-31T15:22:29;100426.88;;;18.32
70819;BMP280;58439;51.046;13.692;2022-10-31T15:25:26;100428.59;;;18.10
70819;BMP280;58439;51.046;13.692;2022-10-31T15:27:55;100427.94;;;17.91
70819;BMP280;58439;51.046;13.692;2022-10-31T15:30:26;100433.06;;;17.69
70819;BMP280;58439;51.046;13.692;2022-10-31T15:32:55;100415.72;;;17.50
70819;BMP280;58439;51.046;13.692;2022-10-31T15:36:04;100417.22;;;17.34
70819;BMP280;58439;51.046;13.692;2022-10-31T15:38:33;100421.34;;;17.18
70819;BMP280;58439;51.046;13.692;2022-10-31T15:41:05;100411.00;;;16.93
70819;BMP280;58439;51.046;13.692;2022-10-31T15:43:37;100417.28;;;16.80
70819;BMP280;58439;51.046;13.692;2022-10-31T15:46:09;100415.84;;;16.66
70819;BMP280;58439;51.046;13.692;2022-10-31T15:48:38;100406.66;;;16.57
70819;BMP280;58439;51.046;13.692;2022-10-31T15:51:07;100415.00;;;16.42
70819;BMP280;58439;51.046;13.692;2022-10-31T15:54:13;100404.59;;;16.29
70819;BMP280;58439;51.046;13.692;2022-10-31T15:56:43;100400.88;;;16.18
70819;BMP280;58439;51.046;13.692;2022-10-31T15:59:21;100402.28;;;16.03
70819;BMP280;58439;51.046;13.692;2022-10-31T16:02:09;100397.56;;;15.93
70819;BMP280;58439;51.046;13.692;2022-10-31T16:04:57;100394.31;;;15.91
70819;BMP280;58439;51.046;13.692;2022-10-31T16:07:25;100393.13;;;15.87
70819;BMP280;58439;51.046;13.692;2022-10-31T16:09:59;100391.44;;;15.74
70819;BMP280;58439;51.046;13.692;2022-10-31T16:12:46;100398.69;;;15.60
70819;BMP280;58439;51.046;13.692;2022-10-31T16:15:16;100395.94;;;15.55
70819;BMP280;58439;51.046;13.692;2022-10-31T16:17:50;100395.78;;;15.50
70819;BMP280;58439;51.046;13.692;2022-10-31T16:20:29;100394.97;;;15.50
70819;BMP280;58439;51.046;13.692;2022-10-31T16:22:59;100394.00;;;15.44
70819;BMP280;58439;51.046;13.692;2022-10-31T16:25:38;100392.06;;;15.33
70819;BMP280;58439;51.046;13.692;2022-10-31T16:28:22;100394.00;;;15.19
70819;BMP280;58439;51.046;13.692;2022-10-31T16:30:58;100393.03;;;15.14
70819;BMP280;58439;51.046;13.692;2022-10-31T16:33:33;100398.78;;;15.11
70819;BMP280;58439;51.046;13.692;2022-10-31T16:39:03;100392.88;;;15.09
70819;BMP280;58439;51.046;13.692;2022-10-31T16:41:35;100391.50;;;15.06
70819;BMP280;58439;51.046;13.692;2022-10-31T16:44:12;100394.28;;;15.11
70819;BMP280;58439;51.046;13.692;2022-10-31T16:46:42;100389.41;;;15.15
70819;BMP280;58439;51.046;13.692;2022-10-31T16:49:17;100386.59;;;15.10
70819;BMP280;58439;51.046;13.692;2022-10-31T16:52:38;100392.19;;;14.95
70819;BMP280;58439;51.046;13.692;2022-10-31T16:55:32;100389.22;;;14.85
70819;BMP280;58439;51.046;13.692;2022-10-31T16:58:03;100386.81;;;14.76
70819;BMP280;58439;51.046;13.692;2022-10-31T17:00:42;100392.75;;;14.65
70819;BMP280;58439;51.046;13.692;2022-10-31T17:04:13;100391.81;;;14.60
70819;BMP280;58439;51.046;13.692;2022-10-31T17:07:35;100384.31;;;14.57
70819;BMP280;58439;51.046;13.692;2022-10-31T17:10:12;100390.22;;;14.52
70819;BMP280;58439;51.046;13.692;2022-10-31T17:13:11;100385.84;;;14.39
70819;BMP280;58439;51.046;13.692;2022-10-31T17:16:27;100392.94;;;14.39
70819;BMP280;58439;51.046;13.692;2022-10-31T17:19:10;100384.44;;;14.30
70819;BMP280;58439;51.046;13.692;2022-10-31T17:21:38;100382.66;;;14.24
70819;BMP280;58439;51.046;13.692;2022-10-31T17:24:11;100377.63;;;14.16
70819;BMP280;58439;51.046;13.692;2022-10-31T17:26:41;100378.69;;;14.08
70819;BMP280;58439;51.046;13.692;2022-10-31T17:29:08;100382.94;;;14.03
70819;BMP280;58439;51.046;13.692;2022-10-31T17:31:35;100377.09;;;14.01
70819;BMP280;58439;51.046;13.692;2022-10-31T17:34:06;100373.03;;;13.98
70819;BMP280;58439;51.046;13.692;2022-10-31T17:36:35;100374.47;;;14.01
70819;BMP280;58439;51.046;13.692;2022-10-31T17:54:04;100360.50;;;13.94
70819;BMP280;58439;51.046;13.692;2022-10-31T17:56:35;100360.72;;;13.92
70819;BMP280;58439;51.046;13.692;2022-10-31T17:59:03;100360.72;;;13.92
70819;BMP280;58439;51.046;13.692;2022-10-31T18:01:35;100361.31;;;13.94
70819;BMP280;58439;51.046;13.692;2022-10-31T18:04:03;100363.56;;;13.97
70819;BMP280;58439;51.046;13.692;2022-10-31T18:06:33;100361.16;;;13.96
70819;BMP280;58439;51.046;13.692;2022-10-31T18:09:03;100356.88;;;13.95
70819;BMP280;58439;51.046;13.692;2022-10-31T18:11:31;100358.31;;;13.91
70819;BMP280;58439;51.046;13.692;2022-10-31T18:13:58;100358.72;;;13.87
70819;BMP280;58439;51.046;13.692;2022-10-31T18:16:26;100357.91;;;13.87
70819;BMP280;58439;51.046;13.692;2022-10-31T18:19:01;100362.38;;;13.80
70819;BMP280;58439;51.046;13.692;2022-10-31T18:21:29;100356.53;;;13.78
70819;BMP280;58439;51.046;13.692;2022-10-31T18:23:59;100358.75;;;13.81
70819;BMP280;58439;51.046;13.692;2022-10-31T18:26:29;100357.31;;;13.78
70819;BMP280;58439;51.046;13.692;2022-10-31T18:28:59;100354.13;;;13.70
70819;BMP280;58439;51.046;13.692;2022-10-31T18:31:27;100350.69;;;13.69
70819;BMP280;58439;51.046;13.692;2022-10-31T18:33:55;100353.13;;;13.64
70819;BMP280;58439;51.046;13.692;2022-10-31T18:36:24;100345.03;;;13.59
70819;BMP280;58439;51.046;13.692;2022-10-31T18:38:51;100340.63;;;13.53
70819;BMP280;58439;51.046;13.692;2022-10-31T18:41:19;100333.53;;;13.47
70819;BMP280;58439;51.046;13.692;2022-10-31T18:43:48;100337.19;;;13.39
70819;BMP280;58439;51.046;13.692;2022-10-31T18:46:16;100336.38;;;13.32
70819;BMP280;58439;51.046;13.692;2022-10-31T18:48:44;100344.28;;;13.25
70819;BMP280;58439;51.046;13.692;2022-10-31T18:51:13;100339.22;;;13.17
70819;BMP280;58439;51.046;13.692;2022-10-31T18:53:41;100335.59;;;13.12
70819;BMP280;58439;51.046;13.692;2022-10-31T18:56:12;100337.78;;;13.08
70819;BMP280;58439;51.046;13.692;2022-10-31T18:58:43;100338.41;;;13.03
70819;BMP280;58439;51.046;13.692;2022-10-31T19:01:12;100341.06;;;12.97
70819;BMP280;58439;51.046;13.692;2022-10-31T19:03:41;100330.75;;;12.89
70819;BMP280;58439;51.046;13.692;2022-10-31T19:06:09;100329.34;;;12.86
70819;BMP280;58439;51.046;13.692;2022-10-31T19:08:39;100327.47;;;12.73
70819;BMP280;58439;51.046;13.692;2022-10-31T19:11:47;100322.22;;;12.67
70819;BMP280;58439;51.046;13.692;2022-10-31T19:14:18;100321.59;;;12.65
70819;BMP280;58439;51.046;13.692;2022-10-31T19:16:45;100314.31;;;12.60
70819;BMP280;58439;51.046;13.692;2022-10-31T19:19:19;100313.75;;;12.58